createdAt,value
2018-12-04T00:00:40.885Z,997.09
2018-12-04T00:01:40.822Z,997.12
2018-12-04T00:02:40.757Z,997.15
2018-12-04T00:03:40.726Z,997.12
2018-12-04T00:04:40.644Z,997.17
2018-12-04T00:05:40.584Z,997.14
2018-12-04T00:06:40.522Z,997.10
2018-12-04T00:07:40.486Z,997.12
2018-12-04T00:08:40.445Z,997.12
2018-12-04T00:09:40.382Z,997.17
2018-12-04T00:10:40.310Z,997.15
2018-12-04T00:11:40.252Z,997.19
2018-12-04T00:12:40.190Z,997.13
2018-12-04T00:13:40.142Z,997.15
2018-12-04T00:14:40.062Z,997.19
2018-12-04T00:15:40.007Z,997.21
2018-12-04T00:16:39.944Z,997.20
2018-12-04T00:17:39.890Z,997.18
2018-12-04T00:18:39.844Z,997.25
2018-12-04T00:19:39.776Z,997.24
2018-12-04T00:20:39.730Z,997.23
2018-12-04T00:21:39.691Z,997.19
2018-12-04T00:22:39.637Z,997.26
2018-12-04T00:23:39.589Z,997.32
2018-12-04T00:24:39.516Z,997.28
2018-12-04T00:25:39.459Z,997.31
2018-12-04T00:26:39.407Z,997.32
2018-12-04T00:27:39.355Z,997.32
2018-12-04T00:28:39.313Z,997.31
2018-12-04T00:29:39.233Z,997.33
2018-12-04T00:30:39.177Z,997.31
2018-12-04T00:31:39.120Z,997.32
2018-12-04T00:32:39.065Z,997.32
2018-12-04T00:33:39.045Z,997.36
2018-12-04T00:34:38.957Z,997.36
2018-12-04T00:35:38.892Z,997.34
2018-12-04T00:36:38.833Z,997.34
2018-12-04T00:37:38.777Z,997.37
2018-12-04T00:38:38.717Z,997.39
2018-12-04T00:39:38.687Z,997.40
2018-12-04T00:40:38.613Z,997.42
2018-12-04T00:41:38.559Z,997.42
2018-12-04T00:42:38.507Z,997.40
2018-12-04T00:43:38.450Z,997.39
2018-12-04T00:44:38.407Z,997.43
2018-12-04T00:45:38.341Z,997.45
2018-12-04T00:46:38.284Z,997.53
2018-12-04T00:47:38.236Z,997.49
2018-12-04T00:48:38.184Z,997.48
2018-12-04T00:49:38.133Z,997.57
2018-12-04T00:50:38.069Z,997.58
2018-12-04T00:51:38.015Z,997.53
2018-12-04T00:52:37.953Z,997.58
2018-12-04T00:53:37.895Z,997.65
2018-12-04T00:54:37.866Z,997.61
2018-12-04T00:55:37.800Z,997.61
2018-12-04T00:56:37.741Z,997.60
2018-12-04T00:57:37.687Z,997.63
2018-12-04T00:58:37.632Z,997.61
2018-12-04T00:59:37.587Z,997.66
2018-12-04T01:00:37.518Z,997.68
2018-12-04T01:01:37.473Z,997.67
2018-12-04T01:02:37.417Z,997.70
2018-12-04T01:03:37.379Z,997.75
2018-12-04T01:04:37.316Z,997.72
2018-12-04T01:05:37.253Z,997.70
2018-12-04T01:06:37.187Z,997.75
2018-12-04T01:07:37.127Z,997.74
2018-12-04T01:08:37.073Z,997.77
2018-12-04T01:09:37.043Z,997.76
2018-12-04T01:10:36.978Z,997.77
2018-12-04T01:11:36.931Z,997.78
2018-12-04T01:12:36.869Z,997.80
2018-12-04T01:13:36.825Z,997.81
2018-12-04T01:14:36.780Z,997.81
2018-12-04T01:15:36.713Z,997.84
2018-12-04T01:16:36.661Z,997.78
2018-12-04T01:17:36.603Z,997.85
2018-12-04T01:18:36.549Z,997.89
2018-12-04T01:19:36.506Z,997.83
2018-12-04T01:20:36.436Z,997.91
2018-12-04T01:21:36.375Z,997.88
2018-12-04T01:22:36.326Z,997.86
2018-12-04T01:23:36.283Z,997.85
2018-12-04T01:24:36.271Z,997.84
2018-12-04T01:25:36.200Z,997.85
2018-12-04T01:26:36.131Z,997.86
2018-12-04T01:27:36.075Z,997.89
2018-12-04T01:28:36.020Z,997.91
2018-12-04T01:29:35.957Z,997.86
2018-12-04T01:30:35.913Z,997.93
2018-12-04T01:31:35.839Z,997.92
2018-12-04T01:32:35.785Z,997.94
2018-12-04T01:33:35.723Z,997.93
2018-12-04T01:34:35.666Z,997.93
2018-12-04T01:35:35.631Z,997.92
2018-12-04T01:36:35.556Z,997.90
2018-12-04T01:37:35.493Z,997.91
2018-12-04T01:38:35.442Z,997.93
2018-12-04T01:39:35.375Z,997.92
2018-12-04T01:40:35.348Z,997.90
2018-12-04T01:41:35.277Z,997.90
2018-12-04T01:42:35.215Z,997.90
2018-12-04T01:43:35.169Z,997.90
2018-12-04T01:44:35.128Z,997.91
2018-12-04T01:45:35.095Z,997.86
2018-12-04T01:46:35.025Z,997.87
2018-12-04T01:47:34.966Z,997.88
2018-12-04T01:48:34.912Z,997.89
2018-12-04T01:49:34.867Z,997.90
2018-12-04T01:50:34.839Z,997.87
2018-12-04T01:51:34.771Z,997.85
2018-12-04T01:52:34.717Z,997.86
2018-12-04T01:53:34.661Z,997.85
2018-12-04T01:54:34.598Z,997.84
2018-12-04T01:55:34.566Z,997.90
2018-12-04T01:56:34.502Z,997.86
2018-12-04T01:57:34.453Z,997.90
2018-12-04T01:58:34.399Z,997.84
2018-12-04T01:59:34.343Z,997.85
2018-12-04T02:00:34.315Z,997.87
2018-12-04T02:01:34.238Z,997.84
2018-12-04T02:02:34.173Z,997.86
2018-12-04T02:03:34.113Z,997.87
2018-12-04T02:04:34.056Z,997.87
2018-12-04T02:05:34.015Z,997.87
2018-12-04T02:06:33.923Z,997.88
2018-12-04T02:07:33.870Z,997.87
2018-12-04T02:08:33.821Z,997.91
2018-12-04T02:09:33.775Z,997.88
2018-12-04T02:10:33.751Z,997.88
2018-12-04T02:11:33.663Z,997.93
2018-12-04T02:12:33.599Z,997.89
2018-12-04T02:13:33.543Z,997.91
2018-12-04T02:14:33.491Z,997.92
2018-12-04T02:15:33.431Z,997.94
2018-12-04T02:16:33.395Z,997.98
2018-12-04T02:17:33.331Z,997.99
2018-12-04T02:18:33.288Z,997.99
2018-12-04T02:19:33.235Z,997.95
2018-12-04T02:20:33.183Z,997.96
2018-12-04T02:21:33.140Z,997.94
2018-12-04T02:22:33.071Z,997.94
2018-12-04T02:23:33.029Z,997.94
2018-12-04T02:24:32.970Z,997.98
2018-12-04T02:25:32.911Z,997.97
2018-12-04T02:26:32.875Z,998.00
2018-12-04T02:27:39.844Z,998.01
2018-12-04T02:28:32.765Z,998.00
2018-12-04T02:29:32.724Z,998.03
2018-12-04T02:30:32.668Z,998.03
2018-12-04T02:31:32.630Z,998.06
2018-12-04T02:32:32.577Z,998.07
2018-12-04T02:33:32.518Z,998.07
2018-12-04T02:34:32.473Z,998.05
2018-12-04T02:35:32.429Z,998.08
2018-12-04T02:36:32.406Z,998.08
2018-12-04T02:37:32.323Z,998.08
2018-12-04T02:38:32.271Z,998.07
2018-12-04T02:39:32.220Z,998.11
2018-12-04T02:40:32.185Z,998.08
2018-12-04T02:41:32.140Z,998.16
2018-12-04T02:42:32.069Z,998.11
2018-12-04T02:43:32.020Z,998.16
2018-12-04T02:44:31.974Z,998.17
2018-12-04T02:45:31.919Z,998.12
2018-12-04T02:46:31.889Z,998.19
2018-12-04T02:47:31.834Z,998.30
2018-12-04T02:48:31.798Z,998.29
2018-12-04T02:49:31.707Z,998.31
2018-12-04T02:50:31.686Z,998.32
2018-12-04T02:51:31.615Z,998.35
2018-12-04T02:52:31.551Z,998.33
2018-12-04T02:53:31.495Z,998.33
2018-12-04T02:54:31.444Z,998.34
2018-12-04T02:55:31.385Z,998.35
2018-12-04T02:56:31.347Z,998.37
2018-12-04T02:57:31.287Z,998.34
2018-12-04T02:58:31.231Z,998.41
2018-12-04T02:59:31.173Z,998.41
2018-12-04T03:00:31.124Z,998.39
2018-12-04T03:01:31.094Z,998.41
2018-12-04T03:02:31.021Z,998.42
2018-12-04T03:03:30.977Z,998.49
2018-12-04T03:04:30.926Z,998.49
2018-12-04T03:05:30.859Z,998.50
2018-12-04T03:06:30.843Z,998.51
2018-12-04T03:07:30.755Z,998.59
2018-12-04T03:08:30.695Z,998.59
2018-12-04T03:09:30.648Z,998.63
2018-12-04T03:10:30.573Z,998.62
2018-12-04T03:11:30.555Z,998.69
2018-12-04T03:12:30.492Z,998.74
2018-12-04T03:13:30.431Z,998.73
2018-12-04T03:14:30.363Z,998.78
2018-12-04T03:15:30.322Z,998.76
2018-12-04T03:16:30.293Z,998.87
2018-12-04T03:17:30.257Z,998.82
2018-12-04T03:18:30.228Z,998.86
2018-12-04T03:19:30.188Z,998.90
2018-12-04T03:20:30.125Z,998.96
2018-12-04T03:21:30.086Z,999.01
2018-12-04T03:22:30.030Z,998.98
2018-12-04T03:23:29.975Z,999.00
2018-12-04T03:24:29.919Z,999.10
2018-12-04T03:25:29.892Z,999.13
2018-12-04T03:26:29.824Z,999.21
2018-12-04T03:27:29.792Z,999.28
2018-12-04T03:28:29.740Z,999.32
2018-12-04T03:29:29.687Z,999.24
2018-12-04T03:30:29.635Z,999.41
2018-12-04T03:31:29.591Z,999.34
2018-12-04T03:32:29.559Z,999.38
2018-12-04T03:33:29.521Z,999.44
2018-12-04T03:34:29.459Z,999.56
2018-12-04T03:35:29.403Z,999.50
2018-12-04T03:36:29.346Z,999.48
2018-12-04T03:37:29.306Z,999.61
2018-12-04T03:38:29.238Z,999.65
2018-12-04T03:39:29.185Z,999.72
2018-12-04T03:40:29.140Z,999.74
2018-12-04T03:41:29.079Z,999.85
2018-12-04T03:42:29.032Z,999.89
2018-12-04T03:43:29.002Z,999.95
2018-12-04T03:44:28.896Z,999.99
2018-12-04T03:45:28.846Z,999.94
2018-12-04T03:46:28.807Z,999.98
2018-12-04T03:47:28.757Z,999.98
2018-12-04T03:48:28.686Z,1000.01
2018-12-04T03:49:28.649Z,1000.09
2018-12-04T03:50:28.588Z,1000.02
2018-12-04T03:51:28.532Z,1000.09
2018-12-04T03:52:28.489Z,1000.07
2018-12-04T03:53:28.396Z,1000.10
2018-12-04T03:54:28.347Z,1000.11
2018-12-04T03:55:28.281Z,1000.17
2018-12-04T03:56:28.244Z,1000.19
2018-12-04T03:57:28.172Z,1000.27
2018-12-04T03:58:28.125Z,1000.23
2018-12-04T03:59:28.056Z,1000.34
2018-12-04T04:00:28.033Z,1000.35
2018-12-04T04:01:27.982Z,1000.40
2018-12-04T04:02:27.876Z,1000.40
2018-12-04T04:03:27.839Z,1000.52
2018-12-04T04:04:27.764Z,1000.48
2018-12-04T04:05:27.732Z,1000.53
2018-12-04T04:06:27.671Z,1000.44
2018-12-04T04:07:27.604Z,1000.56
2018-12-04T04:08:27.608Z,1000.56
2018-12-04T04:09:27.489Z,1000.62
2018-12-04T04:10:27.449Z,1000.64
2018-12-04T04:11:27.389Z,1000.63
2018-12-04T04:12:27.336Z,1000.66
2018-12-04T04:13:27.321Z,1000.71
2018-12-04T04:14:27.246Z,1000.73
2018-12-04T04:15:27.193Z,1000.72
2018-12-04T04:16:27.145Z,1000.92
2018-12-04T04:17:27.124Z,1000.84
2018-12-04T04:18:27.067Z,1000.90
2018-12-04T04:19:26.992Z,1000.95
2018-12-04T04:20:26.929Z,1000.91
2018-12-04T04:21:26.890Z,1000.98
2018-12-04T04:22:26.834Z,1000.99
2018-12-04T04:23:26.830Z,1000.98
2018-12-04T04:24:26.768Z,1000.99
2018-12-04T04:25:26.712Z,1001.06
2018-12-04T04:26:26.667Z,1001.04
2018-12-04T04:27:26.627Z,1001.10
2018-12-04T04:28:26.597Z,1001.09
2018-12-04T04:29:26.546Z,1001.12
2018-12-04T04:30:26.467Z,1001.16
2018-12-04T04:31:26.426Z,1001.10
2018-12-04T04:32:26.391Z,1001.12
2018-12-04T04:33:26.349Z,1001.19
2018-12-04T04:34:26.329Z,1001.17
2018-12-04T04:35:26.275Z,1001.19
2018-12-04T04:36:26.209Z,1001.26
2018-12-04T04:37:26.153Z,1001.31
2018-12-04T04:38:26.103Z,1001.23
2018-12-04T04:39:26.075Z,1001.28
2018-12-04T04:40:26.017Z,1001.26
2018-12-04T04:41:25.991Z,1001.34
2018-12-04T04:42:25.946Z,1001.40
2018-12-04T04:43:25.878Z,1001.38
2018-12-04T04:44:25.841Z,1001.42
2018-12-04T04:45:25.763Z,1001.43
2018-12-04T04:46:25.721Z,1001.51
2018-12-04T04:47:25.708Z,1001.53
2018-12-04T04:48:25.626Z,1001.52
2018-12-04T04:49:25.586Z,1001.63
2018-12-04T04:50:25.551Z,1001.57
2018-12-04T04:51:25.459Z,1001.62
2018-12-04T04:52:25.437Z,1001.67
2018-12-04T04:53:25.377Z,1001.67
2018-12-04T04:54:25.298Z,1001.79
2018-12-04T04:55:25.246Z,1001.75
2018-12-04T04:56:25.206Z,1001.81
2018-12-04T04:57:25.126Z,1001.83
2018-12-04T04:58:25.062Z,1001.83
2018-12-04T04:59:24.991Z,1001.87
2018-12-04T05:00:24.960Z,1001.92
2018-12-04T05:01:24.884Z,1001.97
2018-12-04T05:02:24.827Z,1001.93
2018-12-04T05:03:24.811Z,1002.04
2018-12-04T05:04:24.730Z,1002.03
2018-12-04T05:05:24.716Z,1002.07
2018-12-04T05:06:24.614Z,1002.10
2018-12-04T05:07:24.553Z,1002.15
2018-12-04T05:08:24.516Z,1002.21
2018-12-04T05:09:24.463Z,1002.25
2018-12-04T05:10:24.421Z,1002.19
2018-12-04T05:11:24.343Z,1002.27
2018-12-04T05:12:24.281Z,1002.26
2018-12-04T05:13:24.213Z,1002.28
2018-12-04T05:14:24.174Z,1002.33
2018-12-04T05:15:24.133Z,1002.39
2018-12-04T05:16:24.063Z,1002.48
2018-12-04T05:17:23.994Z,1002.39
2018-12-04T05:18:23.946Z,1002.43
2018-12-04T05:19:23.893Z,1002.52
2018-12-04T05:20:23.857Z,1002.48
2018-12-04T05:21:23.807Z,1002.53
2018-12-04T05:22:23.727Z,1002.61
2018-12-04T05:23:23.699Z,1002.60
2018-12-04T05:24:23.642Z,1002.60
2018-12-04T05:25:23.603Z,1002.68
2018-12-04T05:26:23.542Z,1002.69
2018-12-04T05:27:23.492Z,1002.72
2018-12-04T05:28:23.447Z,1002.77
2018-12-04T05:29:23.391Z,1002.79
2018-12-04T05:30:23.348Z,1002.85
2018-12-04T05:31:23.305Z,1002.86
2018-12-04T05:32:23.256Z,1002.87
2018-12-04T05:33:23.227Z,1002.95
2018-12-04T05:34:23.163Z,1002.90
2018-12-04T05:35:23.136Z,1003.04
2018-12-04T05:36:23.087Z,1002.99
2018-12-04T05:37:23.007Z,1003.02
2018-12-04T05:38:22.949Z,1003.09
2018-12-04T05:39:22.895Z,1003.09
2018-12-04T05:40:22.851Z,1003.07
2018-12-04T05:41:22.797Z,1003.12
2018-12-04T05:42:22.735Z,1003.13
2018-12-04T05:43:22.666Z,1003.25
2018-12-04T05:44:22.627Z,1003.24
2018-12-04T05:45:22.577Z,1003.25
2018-12-04T05:46:22.541Z,1003.22
2018-12-04T05:47:22.458Z,1003.23
2018-12-04T05:48:22.402Z,1003.43
2018-12-04T05:49:22.341Z,1003.37
2018-12-04T05:50:22.286Z,1003.49
2018-12-04T05:51:22.261Z,1003.47
2018-12-04T05:52:22.191Z,1003.47
2018-12-04T05:53:22.121Z,1003.50
2018-12-04T05:54:22.070Z,1003.50
2018-12-04T05:55:22.005Z,1003.58
2018-12-04T05:56:21.971Z,1003.56
2018-12-04T05:57:21.921Z,1003.72
2018-12-04T05:58:21.857Z,1003.66
2018-12-04T05:59:21.792Z,1003.71
2018-12-04T06:00:21.735Z,1003.71
2018-12-04T06:01:21.707Z,1003.70
2018-12-04T06:02:21.622Z,1003.79
2018-12-04T06:03:21.559Z,1003.82
2018-12-04T06:04:21.543Z,1003.82
2018-12-04T06:05:21.457Z,1003.82
2018-12-04T06:06:21.408Z,1003.92
2018-12-04T06:07:21.336Z,1003.89
2018-12-04T06:08:21.279Z,1003.91
2018-12-04T06:09:21.222Z,1003.97
2018-12-04T06:10:21.166Z,1003.97
2018-12-04T06:11:21.127Z,1003.93
2018-12-04T06:12:21.038Z,1004.03
2018-12-04T06:13:20.985Z,1003.98
2018-12-04T06:14:20.970Z,1004.07
2018-12-04T06:15:20.874Z,1004.04
2018-12-04T06:16:20.834Z,1004.11
2018-12-04T06:17:20.775Z,1004.11
2018-12-04T06:18:20.728Z,1004.12
2018-12-04T06:19:20.691Z,1004.21
2018-12-04T06:20:20.624Z,1004.27
2018-12-04T06:21:20.624Z,1004.26
2018-12-04T06:22:20.516Z,1004.24
2018-12-04T06:23:20.469Z,1004.32
2018-12-04T06:24:20.418Z,1004.31
2018-12-04T06:25:20.350Z,1004.36
2018-12-04T06:26:20.302Z,1004.36
2018-12-04T06:27:20.273Z,1004.36
2018-12-04T06:28:20.224Z,1004.40
2018-12-04T06:29:20.152Z,1004.35
2018-12-04T06:30:20.102Z,1004.51
2018-12-04T06:31:20.057Z,1004.47
2018-12-04T06:32:20.006Z,1004.51
2018-12-04T06:33:19.974Z,1004.46
2018-12-04T06:34:19.884Z,1004.48
2018-12-04T06:35:19.839Z,1004.49
2018-12-04T06:36:19.816Z,1004.51
2018-12-04T06:37:19.775Z,1004.53
2018-12-04T06:38:19.696Z,1004.58
2018-12-04T06:39:19.636Z,1004.67
2018-12-04T06:40:19.574Z,1004.64
2018-12-04T06:41:19.513Z,1004.68
2018-12-04T06:42:19.498Z,1004.73
2018-12-04T06:43:19.431Z,1004.77
2018-12-04T06:44:19.332Z,1004.82
2018-12-04T06:45:19.288Z,1004.91
2018-12-04T06:46:19.242Z,1004.86
2018-12-04T06:47:19.192Z,1004.88
2018-12-04T06:48:19.132Z,1004.88
2018-12-04T06:49:19.067Z,1004.95
2018-12-04T06:50:19.040Z,1004.93
2018-12-04T06:51:18.965Z,1004.98
2018-12-04T06:52:18.916Z,1005.02
2018-12-04T06:53:18.857Z,1005.01
2018-12-04T06:54:18.824Z,1005.09
2018-12-04T06:55:18.794Z,1005.17
2018-12-04T06:56:18.726Z,1005.25
2018-12-04T06:57:18.704Z,1005.23
2018-12-04T06:58:18.632Z,1005.26
2018-12-04T06:59:18.589Z,1005.34
2018-12-04T07:00:18.526Z,1005.34
2018-12-04T07:01:18.480Z,1005.39
2018-12-04T07:02:18.461Z,1005.39
2018-12-04T07:03:18.398Z,1005.49
2018-12-04T07:04:18.382Z,1005.41
2018-12-04T07:05:18.306Z,1005.49
2018-12-04T07:06:18.267Z,1005.55
2018-12-04T07:07:18.266Z,1005.64
2018-12-04T07:08:18.160Z,1005.70
2018-12-04T07:09:18.099Z,1005.72
2018-12-04T07:10:18.092Z,1005.71
2018-12-04T07:11:17.993Z,1005.82
2018-12-04T07:12:17.965Z,1005.81
2018-12-04T07:13:17.924Z,1005.88
2018-12-04T07:14:17.820Z,1005.84
2018-12-04T07:15:17.775Z,1005.96
2018-12-04T07:16:17.727Z,1005.98
2018-12-04T07:17:18.539Z,1006.02
2018-12-04T07:18:17.616Z,1006.03
2018-12-04T07:19:17.560Z,1006.08
2018-12-04T07:20:17.504Z,1006.17
2018-12-04T07:21:17.444Z,1006.13
2018-12-04T07:22:17.387Z,1006.18
2018-12-04T07:23:17.360Z,1006.18
2018-12-04T07:24:17.294Z,1006.21
2018-12-04T07:25:17.244Z,1006.27
2018-12-04T07:26:17.205Z,1006.28
2018-12-04T07:27:17.147Z,1006.30
2018-12-04T07:28:17.118Z,1006.35
2018-12-04T07:29:17.080Z,1006.30
2018-12-04T07:30:16.990Z,1006.35
2018-12-04T07:31:16.970Z,1006.38
2018-12-04T07:32:16.927Z,1006.38
2018-12-04T07:33:16.898Z,1006.42
2018-12-04T07:34:16.813Z,1006.55
2018-12-04T07:35:16.724Z,1006.45
2018-12-04T07:36:16.714Z,1006.47
2018-12-04T07:37:16.649Z,1006.48
2018-12-04T07:38:16.636Z,1006.52
2018-12-04T07:39:16.538Z,1006.57
2018-12-04T07:40:16.528Z,1006.62
2018-12-04T07:41:16.452Z,1006.63
2018-12-04T07:42:16.400Z,1006.62
2018-12-04T07:43:16.356Z,1006.61
2018-12-04T07:44:16.290Z,1006.67
2018-12-04T07:45:16.265Z,1006.66
2018-12-04T07:46:16.220Z,1006.80
2018-12-04T07:47:16.128Z,1006.80
2018-12-04T07:48:16.088Z,1006.94
2018-12-04T07:49:16.031Z,1006.96
2018-12-04T07:50:15.966Z,1006.98
2018-12-04T07:51:15.924Z,1006.93
2018-12-04T07:52:15.879Z,1006.98
2018-12-04T07:53:15.850Z,1007.03
2018-12-04T07:54:15.788Z,1007.08
2018-12-04T07:55:15.747Z,1007.12
2018-12-04T07:56:15.680Z,1007.14
2018-12-04T07:57:15.652Z,1007.17
2018-12-04T07:58:15.902Z,1007.21
2018-12-04T07:59:15.548Z,1007.25
2018-12-04T08:00:15.495Z,1007.27
2018-12-04T08:01:15.426Z,1007.21
2018-12-04T08:02:15.396Z,1007.24
2018-12-04T08:03:15.331Z,1007.28
2018-12-04T08:04:15.296Z,1007.41
2018-12-04T08:05:15.240Z,1007.38
2018-12-04T08:06:15.218Z,1007.33
2018-12-04T08:07:15.122Z,1007.37
2018-12-04T08:08:15.078Z,1007.40
2018-12-04T08:09:15.054Z,1007.46
2018-12-04T08:10:14.985Z,1007.46
2018-12-04T08:11:14.940Z,1007.52
2018-12-04T08:12:14.881Z,1007.53
2018-12-04T08:13:14.840Z,1007.55
2018-12-04T08:14:14.803Z,1007.55
2018-12-04T08:15:14.734Z,1007.53
2018-12-04T08:16:14.696Z,1007.72
2018-12-04T08:17:14.644Z,1007.68
2018-12-04T08:18:14.618Z,1007.70
2018-12-04T08:19:14.590Z,1007.74
2018-12-04T08:20:14.525Z,1007.78
2018-12-04T08:21:14.443Z,1007.80
2018-12-04T08:22:14.411Z,1007.79
2018-12-04T08:23:14.361Z,1007.88
2018-12-04T08:24:14.329Z,1007.88
2018-12-04T08:25:14.254Z,1007.94
2018-12-04T08:26:14.234Z,1007.86
2018-12-04T08:27:14.144Z,1007.90
2018-12-04T08:28:21.124Z,1007.98
2018-12-04T08:29:14.037Z,1008.01
2018-12-04T08:30:14.007Z,1007.97
2018-12-04T08:31:13.943Z,1008.05
2018-12-04T08:32:13.892Z,1008.12
2018-12-04T08:33:13.848Z,1008.15
2018-12-04T08:34:13.810Z,1008.11
2018-12-04T08:35:13.777Z,1008.10
2018-12-04T08:36:13.720Z,1008.15
2018-12-04T08:37:13.666Z,1008.21
2018-12-04T08:38:13.626Z,1008.24
2018-12-04T08:39:13.581Z,1008.28
2018-12-04T08:40:13.554Z,1008.24
2018-12-04T08:41:13.497Z,1008.32
2018-12-04T08:42:13.441Z,1008.36
2018-12-04T08:43:13.413Z,1008.41
2018-12-04T08:44:13.383Z,1008.37
2018-12-04T08:45:13.356Z,1008.46
2018-12-04T08:46:13.302Z,1008.49
2018-12-04T08:47:13.254Z,1008.48
2018-12-04T08:48:13.210Z,1008.53
2018-12-04T08:49:13.173Z,1008.51
2018-12-04T08:50:13.148Z,1008.46
2018-12-04T08:51:13.103Z,1008.64
2018-12-04T08:52:13.075Z,1008.58
2018-12-04T08:53:13.010Z,1008.61
2018-12-04T08:54:12.953Z,1008.63
2018-12-04T08:55:12.914Z,1008.68
2018-12-04T08:56:12.840Z,1008.65
2018-12-04T08:57:12.794Z,1008.76
2018-12-04T08:58:12.757Z,1008.72
2018-12-04T08:59:12.718Z,1008.75
2018-12-04T09:00:12.683Z,1008.74
2018-12-04T09:01:12.616Z,1008.79
2018-12-04T09:02:12.559Z,1008.73
2018-12-04T09:03:12.504Z,1008.73
2018-12-04T09:04:12.446Z,1008.82
2018-12-04T09:05:12.465Z,1008.86
2018-12-04T09:06:12.340Z,1008.92
2018-12-04T09:07:12.280Z,1008.93
2018-12-04T09:08:12.230Z,1008.93
2018-12-04T09:09:12.179Z,1008.91
2018-12-04T09:10:12.269Z,1008.98
2018-12-04T09:11:12.080Z,1009.01
2018-12-04T09:12:12.033Z,1009.02
2018-12-04T09:13:11.978Z,1009.07
2018-12-04T09:14:11.936Z,1009.11
2018-12-04T09:15:11.886Z,1009.15
2018-12-04T09:16:11.855Z,1009.15
2018-12-04T09:17:11.798Z,1009.25
2018-12-04T09:18:11.780Z,1009.24
2018-12-04T09:19:11.744Z,1009.28
2018-12-04T09:20:11.734Z,1009.30
2018-12-04T09:21:11.652Z,1009.29
2018-12-04T09:22:11.603Z,1009.36
2018-12-04T09:23:11.560Z,1009.41
2018-12-04T09:24:11.536Z,1009.40
2018-12-04T09:25:11.481Z,1009.42
2018-12-04T09:26:11.445Z,1009.45
2018-12-04T09:27:11.394Z,1009.45
2018-12-04T09:28:11.346Z,1009.46
2018-12-04T09:29:11.299Z,1009.54
2018-12-04T09:30:11.274Z,1009.59
2018-12-04T09:31:11.218Z,1009.47
2018-12-04T09:32:11.146Z,1009.54
2018-12-04T09:33:11.100Z,1009.54
2018-12-04T09:34:11.050Z,1009.52
2018-12-04T09:35:11.007Z,1009.56
2018-12-04T09:36:10.976Z,1009.50
2018-12-04T09:37:10.900Z,1009.54
2018-12-04T09:38:10.853Z,1009.63
2018-12-04T09:39:10.816Z,1009.58
2018-12-04T09:40:10.748Z,1009.58
2018-12-04T09:41:10.718Z,1009.68
2018-12-04T09:42:10.638Z,1009.71
2018-12-04T09:43:10.590Z,1009.69
2018-12-04T09:44:10.535Z,1009.71
2018-12-04T09:45:10.482Z,1009.67
2018-12-04T09:46:10.453Z,1009.66
2018-12-04T09:47:10.382Z,1009.65
2018-12-04T09:48:10.329Z,1009.60
2018-12-04T09:49:10.281Z,1009.65
2018-12-04T09:50:10.236Z,1009.64
2018-12-04T09:51:10.192Z,1009.65
2018-12-04T09:52:10.135Z,1009.63
2018-12-04T09:53:10.088Z,1009.56
2018-12-04T09:54:10.049Z,1009.66
2018-12-04T09:55:10.008Z,1009.58
2018-12-04T09:56:09.970Z,1009.57
2018-12-04T09:57:09.916Z,1009.71
2018-12-04T09:58:09.866Z,1009.71
2018-12-04T09:59:09.879Z,1009.70
2018-12-04T10:00:09.768Z,1009.67
2018-12-04T10:01:09.740Z,1009.72
2018-12-04T10:02:09.666Z,1009.73
2018-12-04T10:03:09.614Z,1009.77
2018-12-04T10:04:09.558Z,1009.71
2018-12-04T10:05:09.506Z,1009.79
2018-12-04T10:06:09.455Z,1009.79
2018-12-04T10:07:09.422Z,1009.79
2018-12-04T10:08:09.355Z,1009.79
2018-12-04T10:09:09.301Z,1009.88
2018-12-04T10:10:09.241Z,1009.98
2018-12-04T10:11:09.197Z,1009.88
2018-12-04T10:12:09.157Z,1009.90
2018-12-04T10:13:09.083Z,1009.92
2018-12-04T10:14:09.040Z,1009.95
2018-12-04T10:15:08.990Z,1009.91
2018-12-04T10:16:08.929Z,1010.00
2018-12-04T10:17:08.909Z,1010.01
2018-12-04T10:18:08.822Z,1010.03
2018-12-04T10:19:08.761Z,1010.03
2018-12-04T10:20:08.702Z,1010.01
2018-12-04T10:21:08.646Z,1010.02
2018-12-04T10:22:08.614Z,1010.02
2018-12-04T10:23:08.541Z,1010.11
2018-12-04T10:24:08.485Z,1010.06
2018-12-04T10:25:08.433Z,1010.12
2018-12-04T10:26:08.379Z,1010.16
2018-12-04T10:27:08.336Z,1010.18
2018-12-04T10:28:08.261Z,1010.21
2018-12-04T10:29:08.207Z,1010.16
2018-12-04T10:30:08.159Z,1010.17
2018-12-04T10:31:08.105Z,1010.15
2018-12-04T10:32:08.069Z,1010.18
2018-12-04T10:33:08.003Z,1010.18
2018-12-04T10:34:07.959Z,1010.24
2018-12-04T10:35:07.919Z,1010.16
2018-12-04T10:36:08.977Z,1010.26
2018-12-04T10:37:07.835Z,1010.26
2018-12-04T10:38:07.770Z,1010.29
2018-12-04T10:39:07.729Z,1010.28
2018-12-04T10:40:07.678Z,1010.23
2018-12-04T10:41:07.627Z,1010.26
2018-12-04T10:42:07.590Z,1010.26
2018-12-04T10:43:07.534Z,1010.28
2018-12-04T10:44:07.480Z,1010.33
2018-12-04T10:45:07.432Z,1010.32
2018-12-04T10:46:07.395Z,1010.29
2018-12-04T10:47:07.356Z,1010.38
2018-12-04T10:48:07.291Z,1010.40
2018-12-04T10:49:07.395Z,1010.43
2018-12-04T10:50:07.191Z,1010.60
2018-12-04T10:51:07.140Z,1010.36
2018-12-04T10:52:07.111Z,1010.44
2018-12-04T10:53:07.030Z,1010.53
2018-12-04T10:54:06.995Z,1010.61
2018-12-04T10:55:06.913Z,1010.61
2018-12-04T10:56:06.880Z,1010.55
2018-12-04T10:57:09.774Z,1010.61
2018-12-04T10:58:06.748Z,1010.59
2018-12-04T10:59:06.691Z,1010.68
2018-12-04T11:00:06.641Z,1010.64
2018-12-04T11:01:06.594Z,1010.60
2018-12-04T11:02:06.553Z,1010.70
2018-12-04T11:03:06.475Z,1010.59
2018-12-04T11:04:06.419Z,1010.68
2018-12-04T11:05:06.365Z,1010.68
2018-12-04T11:06:06.311Z,1010.69
2018-12-04T11:07:06.311Z,1010.70
2018-12-04T11:08:06.204Z,1010.69
2018-12-04T11:09:06.157Z,1010.71
2018-12-04T11:10:06.096Z,1010.70
2018-12-04T11:11:06.041Z,1010.75
2018-12-04T11:12:05.987Z,1010.72
2018-12-04T11:13:05.961Z,1010.84
2018-12-04T11:14:05.943Z,1010.85
2018-12-04T11:15:05.841Z,1010.79
2018-12-04T11:16:05.793Z,1010.87
2018-12-04T11:17:05.747Z,1010.89
2018-12-04T11:18:05.703Z,1010.85
2018-12-04T11:19:05.748Z,1010.89
2018-12-04T11:20:05.621Z,1010.91
2018-12-04T11:21:05.545Z,1010.87
2018-12-04T11:22:05.465Z,1010.94
2018-12-04T11:23:05.431Z,1010.91
2018-12-04T11:24:05.356Z,1010.91
2018-12-04T11:25:05.319Z,1010.88
2018-12-04T11:26:05.269Z,1010.88
2018-12-04T11:27:05.229Z,1010.90
2018-12-04T11:28:05.186Z,1010.90
2018-12-04T11:29:05.139Z,1010.91
2018-12-04T11:30:05.089Z,1010.95
2018-12-04T11:31:05.062Z,1010.97
2018-12-04T11:32:05.055Z,1010.98
2018-12-04T11:33:05.011Z,1010.99
2018-12-04T11:34:04.942Z,1011.03
2018-12-04T11:35:04.887Z,1011.02
2018-12-04T11:36:04.829Z,1011.01
2018-12-04T11:37:04.774Z,1011.01
2018-12-04T11:38:04.730Z,1011.07
2018-12-04T11:39:04.661Z,1011.13
2018-12-04T11:40:04.603Z,1011.14
2018-12-04T11:41:04.551Z,1011.09
2018-12-04T11:42:04.487Z,1011.13
2018-12-04T11:43:04.454Z,1011.17
2018-12-04T11:44:04.399Z,1011.16
2018-12-04T11:45:04.330Z,1011.20
2018-12-04T11:46:04.281Z,1011.19
2018-12-04T11:47:04.241Z,1011.22
2018-12-04T11:48:04.212Z,1011.27
2018-12-04T11:49:04.161Z,1011.30
2018-12-04T11:50:04.108Z,1011.29
2018-12-04T11:51:04.054Z,1011.27
2018-12-04T11:52:04.012Z,1011.31
2018-12-04T11:53:03.966Z,1011.31
2018-12-04T11:54:03.885Z,1011.37
2018-12-04T11:55:03.950Z,1011.39
2018-12-04T11:56:03.781Z,1011.37
2018-12-04T11:57:03.722Z,1011.38
2018-12-04T11:58:03.694Z,1011.39
2018-12-04T11:59:03.608Z,1011.45
2018-12-04T12:00:03.572Z,1011.53
2018-12-04T12:01:03.508Z,1011.69
2018-12-04T12:02:03.457Z,1011.62
2018-12-04T12:03:03.399Z,1011.60
2018-12-04T12:04:04.518Z,1011.56
2018-12-04T12:05:03.285Z,1011.55
2018-12-04T12:06:03.236Z,1011.64
2018-12-04T12:07:03.181Z,1011.67
2018-12-04T12:08:03.134Z,1011.72
2018-12-04T12:09:03.085Z,1011.67
2018-12-04T12:10:03.020Z,1011.74
2018-12-04T12:11:02.968Z,1011.64
2018-12-04T12:12:02.914Z,1011.69